sensor_id;sensor_type;location;lat;lon;timestamp;P1;durP1;ratioP1;P2;durP2;ratioP2
7487;SDS011;3785;52.260;4.728;2023-05-07T00:01:41;16.98;;;11.52;;
7487;SDS011;3785;52.260;4.728;2023-05-07T00:05:01;17.88;;;11.90;;
7487;SDS011;3785;52.260;4.728;2023-05-07T00:08:22;18.50;;;12.70;;
7487;SDS011;3785;52.260;4.728;2023-05-07T00:11:43;24.48;;;14.80;;
7487;SDS011;3785;52.260;4.728;2023-05-07T00:15:04;22.40;;;14.40;;
7487;SDS011;3785;52.260;4.728;2023-05-07T00:18:25;24.80;;;14.88;;
7487;SDS011;3785;52.260;4.728;2023-05-07T00:21:46;23.75;;;14.68;;
7487;SDS011;3785;52.260;4.728;2023-05-07T00:25:07;25.33;;;15.90;;
7487;SDS011;3785;52.260;4.728;2023-05-07T00:28:27;26.45;;;16.23;;
7487;SDS011;3785;52.260;4.728;2023-05-07T00:31:48;27.75;;;16.83;;
7487;SDS011;3785;52.260;4.728;2023-05-07T00:35:10;25.17;;;15.68;;
7487;SDS011;3785;52.260;4.728;2023-05-07T00:38:30;24.98;;;16.45;;
7487;SDS011;3785;52.260;4.728;2023-05-07T00:41:51;26.98;;;17.45;;
7487;SDS011;3785;52.260;4.728;2023-05-07T00:45:13;26.15;;;16.35;;
7487;SDS011;3785;52.260;4.728;2023-05-07T00:48:34;28.52;;;17.08;;
7487;SDS011;3785;52.260;4.728;2023-05-07T00:51:54;25.38;;;16.27;;
7487;SDS011;3785;52.260;4.728;2023-05-07T00:55:15;25.17;;;15.80;;
7487;SDS011;3785;52.260;4.728;2023-05-07T00:58:36;28.13;;;16.15;;
7487;SDS011;3785;52.260;4.728;2023-05-07T01:01:56;27.67;;;15.52;;
7487;SDS011;3785;52.260;4.728;2023-05-07T01:05:17;22.95;;;15.52;;
7487;SDS011;3785;52.260;4.728;2023-05-07T01:08:39;27.38;;;17.52;;
7487;SDS011;3785;52.260;4.728;2023-05-07T01:12:00;23.73;;;15.27;;
7487;SDS011;3785;52.260;4.728;2023-05-07T01:15:20;27.42;;;16.50;;
7487;SDS011;3785;52.260;4.728;2023-05-07T01:18:41;26.30;;;16.75;;
7487;SDS011;3785;52.260;4.728;2023-05-07T01:22:03;28.88;;;16.73;;
7487;SDS011;3785;52.260;4.728;2023-05-07T01:25:26;26.08;;;17.15;;
7487;SDS011;3785;52.260;4.728;2023-05-07T01:28:47;28.17;;;16.52;;
7487;SDS011;3785;52.260;4.728;2023-05-07T01:32:07;29.40;;;17.63;;
7487;SDS011;3785;52.260;4.728;2023-05-07T01:35:29;26.30;;;17.35;;
7487;SDS011;3785;52.260;4.728;2023-05-07T01:38:53;28.13;;;16.83;;
7487;SDS011;3785;52.260;4.728;2023-05-07T01:42:14;29.25;;;17.65;;
7487;SDS011;3785;52.260;4.728;2023-05-07T01:45:35;26.02;;;16.88;;
7487;SDS011;3785;52.260;4.728;2023-05-07T01:48:56;28.95;;;17.17;;
7487;SDS011;3785;52.260;4.728;2023-05-07T01:52:17;27.10;;;17.25;;
7487;SDS011;3785;52.260;4.728;2023-05-07T01:55:37;26.60;;;16.65;;
7487;SDS011;3785;52.260;4.728;2023-05-07T01:58:58;30.13;;;17.48;;
7487;SDS011;3785;52.260;4.728;2023-05-07T02:02:18;24.08;;;15.90;;
7487;SDS011;3785;52.260;4.728;2023-05-07T02:05:39;25.58;;;16.02;;
7487;SDS011;3785;52.260;4.728;2023-05-07T02:08:59;25.92;;;15.32;;
7487;SDS011;3785;52.260;4.728;2023-05-07T02:12:20;27.73;;;16.35;;
7487;SDS011;3785;52.260;4.728;2023-05-07T02:15:41;27.08;;;16.10;;
7487;SDS011;3785;52.260;4.728;2023-05-07T02:19:01;23.65;;;14.55;;
7487;SDS011;3785;52.260;4.728;2023-05-07T02:22:22;24.23;;;14.98;;
7487;SDS011;3785;52.260;4.728;2023-05-07T02:25:43;19.02;;;13.07;;
7487;SDS011;3785;52.260;4.728;2023-05-07T02:29:03;20.23;;;13.55;;
7487;SDS011;3785;52.260;4.728;2023-05-07T02:32:24;20.50;;;13.20;;
7487;SDS011;3785;52.260;4.728;2023-05-07T02:35:44;19.85;;;12.82;;
7487;SDS011;3785;52.260;4.728;2023-05-07T02:39:05;19.38;;;12.02;;
7487;SDS011;3785;52.260;4.728;2023-05-07T02:42:25;19.60;;;13.68;;
7487;SDS011;3785;52.260;4.728;2023-05-07T02:45:46;20.00;;;12.38;;
7487;SDS011;3785;52.260;4.728;2023-05-07T02:49:06;20.50;;;12.80;;
7487;SDS011;3785;52.260;4.728;2023-05-07T02:52:27;21.15;;;12.52;;
7487;SDS011;3785;52.260;4.728;2023-05-07T02:55:47;20.30;;;12.05;;
7487;SDS011;3785;52.260;4.728;2023-05-07T02:59:08;15.82;;;11.23;;
7487;SDS011;3785;52.260;4.728;2023-05-07T03:02:28;21.52;;;13.13;;
7487;SDS011;3785;52.260;4.728;2023-05-07T03:05:49;19.08;;;11.35;;
7487;SDS011;3785;52.260;4.728;2023-05-07T03:09:10;16.25;;;10.57;;
7487;SDS011;3785;52.260;4.728;2023-05-07T03:12:30;14.70;;;10.90;;
7487;SDS011;3785;52.260;4.728;2023-05-07T03:15:51;15.82;;;9.73;;
7487;SDS011;3785;52.260;4.728;2023-05-07T03:19:11;15.05;;;9.45;;
7487;SDS011;3785;52.260;4.728;2023-05-07T03:22:32;13.18;;;9.30;;
7487;SDS011;3785;52.260;4.728;2023-05-07T03:25:53;12.38;;;8.20;;
7487;SDS011;3785;52.260;4.728;2023-05-07T03:29:13;14.30;;;8.73;;
7487;SDS011;3785;52.260;4.728;2023-05-07T03:32:34;12.63;;;7.95;;
7487;SDS011;3785;52.260;4.728;2023-05-07T03:35:55;11.57;;;8.00;;
7487;SDS011;3785;52.260;4.728;2023-05-07T03:39:15;9.98;;;7.57;;
7487;SDS011;3785;52.260;4.728;2023-05-07T03:42:36;13.48;;;8.02;;
7487;SDS011;3785;52.260;4.728;2023-05-07T03:45:57;10.95;;;7.53;;
7487;SDS011;3785;52.260;4.728;2023-05-07T03:49:17;9.73;;;7.35;;
7487;SDS011;3785;52.260;4.728;2023-05-07T03:52:38;10.38;;;7.05;;
7487;SDS011;3785;52.260;4.728;2023-05-07T03:55:58;9.98;;;7.22;;
7487;SDS011;3785;52.260;4.728;2023-05-07T03:59:19;12.63;;;7.43;;
7487;SDS011;3785;52.260;4.728;2023-05-07T04:02:39;7.38;;;5.47;;
7487;SDS011;3785;52.260;4.728;2023-05-07T04:06:00;8.20;;;6.60;;
7487;SDS011;3785;52.260;4.728;2023-05-07T04:09:21;7.40;;;5.90;;
7487;SDS011;3785;52.260;4.728;2023-05-07T04:12:41;7.97;;;6.20;;
7487;SDS011;3785;52.260;4.728;2023-05-07T04:16:02;10.18;;;6.50;;
7487;SDS011;3785;52.260;4.728;2023-05-07T04:19:23;9.07;;;6.25;;
7487;SDS011;3785;52.260;4.728;2023-05-07T04:22:44;9.48;;;6.45;;
7487;SDS011;3785;52.260;4.728;2023-05-07T04:26:05;8.93;;;6.22;;
7487;SDS011;3785;52.260;4.728;2023-05-07T04:29:25;10.18;;;5.95;;
7487;SDS011;3785;52.260;4.728;2023-05-07T04:32:47;8.50;;;6.10;;
7487;SDS011;3785;52.260;4.728;2023-05-07T04:36:08;10.98;;;6.63;;
7487;SDS011;3785;52.260;4.728;2023-05-07T04:39:28;9.20;;;6.03;;
7487;SDS011;3785;52.260;4.728;2023-05-07T04:42:49;8.95;;;6.63;;
7487;SDS011;3785;52.260;4.728;2023-05-07T04:46:10;9.23;;;6.32;;
7487;SDS011;3785;52.260;4.728;2023-05-07T04:49:30;8.20;;;5.90;;
7487;SDS011;3785;52.260;4.728;2023-05-07T04:52:51;7.43;;;5.65;;
7487;SDS011;3785;52.260;4.728;2023-05-07T04:56:11;9.73;;;6.10;;
7487;SDS011;3785;52.260;4.728;2023-05-07T04:59:32;9.02;;;6.20;;
7487;SDS011;3785;52.260;4.728;2023-05-07T05:02:53;10.65;;;5.93;;
7487;SDS011;3785;52.260;4.728;2023-05-07T05:06:13;8.73;;;6.30;;
7487;SDS011;3785;52.260;4.728;2023-05-07T05:09:34;11.25;;;6.32;;
7487;SDS011;3785;52.260;4.728;2023-05-07T05:12:54;9.52;;;6.47;;
7487;SDS011;3785;52.260;4.728;2023-05-07T05:16:15;9.05;;;5.97;;
7487;SDS011;3785;52.260;4.728;2023-05-07T05:19:35;8.48;;;6.25;;
7487;SDS011;3785;52.260;4.728;2023-05-07T05:22:56;9.48;;;6.72;;
7487;SDS011;3785;52.260;4.728;2023-05-07T05:26:17;9.35;;;6.82;;
7487;SDS011;3785;52.260;4.728;2023-05-07T05:29:37;7.60;;;6.63;;
7487;SDS011;3785;52.260;4.728;2023-05-07T05:32:58;10.90;;;7.22;;
7487;SDS011;3785;52.260;4.728;2023-05-07T05:36:18;8.45;;;6.38;;
7487;SDS011;3785;52.260;4.728;2023-05-07T05:39:39;11.10;;;7.00;;
7487;SDS011;3785;52.260;4.728;2023-05-07T05:43:00;10.27;;;7.40;;
7487;SDS011;3785;52.260;4.728;2023-05-07T05:46:20;10.65;;;7.80;;
7487;SDS011;3785;52.260;4.728;2023-05-07T05:49:41;11.55;;;7.80;;
7487;SDS011;3785;52.260;4.728;2023-05-07T05:53:03;11.25;;;7.13;;
7487;SDS011;3785;52.260;4.728;2023-05-07T05:56:23;10.07;;;7.82;;
7487;SDS011;3785;52.260;4.728;2023-05-07T05:59:44;10.05;;;7.75;;
7487;SDS011;3785;52.260;4.728;2023-05-07T06:03:05;9.45;;;7.53;;
7487;SDS011;3785;52.260;4.728;2023-05-07T06:06:25;10.52;;;8.35;;
7487;SDS011;3785;52.260;4.728;2023-05-07T06:09:46;11.80;;;8.45;;
7487;SDS011;3785;52.260;4.728;2023-05-07T06:13:07;11.15;;;8.35;;
7487;SDS011;3785;52.260;4.728;2023-05-07T06:16:27;12.57;;;8.52;;
7487;SDS011;3785;52.260;4.728;2023-05-07T06:19:48;13.02;;;9.15;;
7487;SDS011;3785;52.260;4.728;2023-05-07T06:23:09;12.77;;;9.40;;
7487;SDS011;3785;52.260;4.728;2023-05-07T06:26:29;12.77;;;9.20;;
7487;SDS011;3785;52.260;4.728;2023-05-07T06:29:50;14.27;;;9.85;;
7487;SDS011;3785;52.260;4.728;2023-05-07T06:33:10;13.05;;;9.10;;
7487;SDS011;3785;52.260;4.728;2023-05-07T06:36:31;15.27;;;9.65;;
7487;SDS011;3785;52.260;4.728;2023-05-07T06:39:51;11.85;;;9.48;;
7487;SDS011;3785;52.260;4.728;2023-05-07T06:43:12;14.43;;;10.85;;
7487;SDS011;3785;52.260;4.728;2023-05-07T06:46:33;12.77;;;9.68;;
7487;SDS011;3785;52.260;4.728;2023-05-07T06:49:55;15.70;;;11.70;;
7487;SDS011;3785;52.260;4.728;2023-05-07T06:53:15;12.63;;;10.15;;
7487;SDS011;3785;52.260;4.728;2023-05-07T06:56:36;12.13;;;9.60;;
7487;SDS011;3785;52.260;4.728;2023-05-07T06:59:56;12.93;;;9.88;;
7487;SDS011;3785;52.260;4.728;2023-05-07T07:03:17;12.98;;;9.57;;
7487;SDS011;3785;52.260;4.728;2023-05-07T07:06:38;14.70;;;9.98;;
7487;SDS011;3785;52.260;4.728;2023-05-07T07:09:58;12.05;;;9.57;;
7487;SDS011;3785;52.260;4.728;2023-05-07T07:13:19;12.00;;;9.75;;
7487;SDS011;3785;52.260;4.728;2023-05-07T07:16:40;14.18;;;9.77;;
7487;SDS011;3785;52.260;4.728;2023-05-07T07:20:00;12.98;;;9.85;;
7487;SDS011;3785;52.260;4.728;2023-05-07T07:23:21;10.73;;;8.90;;
7487;SDS011;3785;52.260;4.728;2023-05-07T07:26:42;11.00;;;8.98;;
7487;SDS011;3785;52.260;4.728;2023-05-07T07:30:02;11.63;;;9.18;;
7487;SDS011;3785;52.260;4.728;2023-05-07T07:33:23;12.35;;;9.15;;
7487;SDS011;3785;52.260;4.728;2023-05-07T07:36:44;11.95;;;8.55;;
7487;SDS011;3785;52.260;4.728;2023-05-07T07:40:05;11.88;;;8.57;;
7487;SDS011;3785;52.260;4.728;2023-05-07T07:43:26;11.77;;;8.88;;
7487;SDS011;3785;52.260;4.728;2023-05-07T07:46:46;12.25;;;8.70;;
7487;SDS011;3785;52.260;4.728;2023-05-07T07:50:07;10.02;;;8.20;;
7487;SDS011;3785;52.260;4.728;2023-05-07T07:53:28;10.02;;;8.10;;
7487;SDS011;3785;52.260;4.728;2023-05-07T07:56:49;12.85;;;8.32;;
7487;SDS011;3785;52.260;4.728;2023-05-07T08:00:14;12.02;;;8.70;;
7487;SDS011;3785;52.260;4.728;2023-05-07T08:03:35;10.88;;;7.80;;
7487;SDS011;3785;52.260;4.728;2023-05-07T08:06:56;9.40;;;7.65;;
7487;SDS011;3785;52.260;4.728;2023-05-07T08:10:17;10.15;;;8.15;;
7487;SDS011;3785;52.260;4.728;2023-05-07T08:13:41;9.23;;;7.20;;
7487;SDS011;3785;52.260;4.728;2023-05-07T08:17:01;9.45;;;6.82;;
7487;SDS011;3785;52.260;4.728;2023-05-07T08:20:22;9.88;;;7.63;;
7487;SDS011;3785;52.260;4.728;2023-05-07T08:23:43;9.18;;;7.32;;
7487;SDS011;3785;52.260;4.728;2023-05-07T08:27:03;9.50;;;6.93;;
7487;SDS011;3785;52.260;4.728;2023-05-07T08:30:24;7.50;;;6.57;;
7487;SDS011;3785;52.260;4.728;2023-05-07T08:33:44;8.88;;;5.80;;
7487;SDS011;3785;52.260;4.728;2023-05-07T08:37:05;8.82;;;5.70;;
7487;SDS011;3785;52.260;4.728;2023-05-07T08:40:26;8.20;;;5.78;;
7487;SDS011;3785;52.260;4.728;2023-05-07T08:43:47;9.13;;;6.43;;
7487;SDS011;3785;52.260;4.728;2023-05-07T08:47:09;10.05;;;6.45;;
7487;SDS011;3785;52.260;4.728;2023-05-07T08:50:30;8.90;;;6.10;;
7487;SDS011;3785;52.260;4.728;2023-05-07T08:53:50;8.05;;;6.10;;
7487;SDS011;3785;52.260;4.728;2023-05-07T08:57:11;9.00;;;6.65;;
7487;SDS011;3785;52.260;4.728;2023-05-07T09:00:32;7.30;;;5.95;;
7487;SDS011;3785;52.260;4.728;2023-05-07T09:03:52;7.47;;;4.97;;
7487;SDS011;3785;52.260;4.728;2023-05-07T09:07:13;7.05;;;4.50;;
7487;SDS011;3785;52.260;4.728;2023-05-07T09:10:34;6.13;;;4.10;;
7487;SDS011;3785;52.260;4.728;2023-05-07T09:13:54;5.60;;;3.85;;
7487;SDS011;3785;52.260;4.728;2023-05-07T09:17:16;6.53;;;4.03;;
7487;SDS011;3785;52.260;4.728;2023-05-07T09:20:37;7.25;;;3.95;;
7487;SDS011;3785;52.260;4.728;2023-05-07T09:23:57;7.95;;;4.15;;
7487;SDS011;3785;52.260;4.728;2023-05-07T09:27:18;5.60;;;4.15;;
7487;SDS011;3785;52.260;4.728;2023-05-07T09:30:39;6.07;;;4.18;;
7487;SDS011;3785;52.260;4.728;2023-05-07T09:33:59;7.55;;;4.63;;
7487;SDS011;3785;52.260;4.728;2023-05-07T09:37:21;7.28;;;4.63;;
7487;SDS011;3785;52.260;4.728;2023-05-07T09:40:41;7.28;;;4.22;;
7487;SDS011;3785;52.260;4.728;2023-05-07T09:44:02;6.05;;;4.38;;
7487;SDS011;3785;52.260;4.728;2023-05-07T09:47:23;6.07;;;5.13;;
7487;SDS011;3785;52.260;4.728;2023-05-07T09:50:48;7.90;;;4.90;;
7487;SDS011;3785;52.260;4.728;2023-05-07T09:54:10;6.18;;;3.70;;
7487;SDS011;3785;52.260;4.728;2023-05-07T09:57:30;6.70;;;3.53;;
7487;SDS011;3785;52.260;4.728;2023-05-07T10:00:52;4.95;;;3.58;;
7487;SDS011;3785;52.260;4.728;2023-05-07T10:04:13;7.13;;;4.68;;
7487;SDS011;3785;52.260;4.728;2023-05-07T10:07:34;6.80;;;5.70;;
7487;SDS011;3785;52.260;4.728;2023-05-07T10:10:55;6.93;;;4.75;;
7487;SDS011;3785;52.260;4.728;2023-05-07T10:14:16;7.72;;;4.63;;
7487;SDS011;3785;52.260;4.728;2023-05-07T10:17:37;7.32;;;4.18;;
7487;SDS011;3785;52.260;4.728;2023-05-07T10:21:04;6.00;;;4.10;;
7487;SDS011;3785;52.260;4.728;2023-05-07T10:24:34;5.68;;;3.30;;
7487;SDS011;3785;52.260;4.728;2023-05-07T10:28:01;5.95;;;3.30;;
7487;SDS011;3785;52.260;4.728;2023-05-07T10:31:41;5.25;;;3.38;;
7487;SDS011;3785;52.260;4.728;2023-05-07T10:35:18;4.47;;;3.15;;
7487;SDS011;3785;52.260;4.728;2023-05-07T10:38:40;4.65;;;3.40;;
7487;SDS011;3785;52.260;4.728;2023-05-07T10:42:07;4.10;;;3.10;;
7487;SDS011;3785;52.260;4.728;2023-05-07T10:45:32;4.18;;;3.08;;
7487;SDS011;3785;52.260;4.728;2023-05-07T10:52:28;4.28;;;3.45;;
7487;SDS011;3785;52.260;4.728;2023-05-07T10:55:50;5.32;;;3.30;;
7487;SDS011;3785;52.260;4.728;2023-05-07T11:06:20;5.38;;;2.92;;
7487;SDS011;3785;52.260;4.728;2023-05-07T11:13:16;3.72;;;3.10;;
7487;SDS011;3785;52.260;4.728;2023-05-07T11:16:37;4.95;;;3.25;;
7487;SDS011;3785;52.260;4.728;2023-05-07T11:19:58;5.78;;;3.38;;
7487;SDS011;3785;52.260;4.728;2023-05-07T11:26:55;5.38;;;2.90;;
7487;SDS011;3785;52.260;4.728;2023-05-07T11:30:18;3.47;;;2.88;;
7487;SDS011;3785;52.260;4.728;2023-05-07T11:33:39;5.35;;;3.47;;
7487;SDS011;3785;52.260;4.728;2023-05-07T11:37:00;5.93;;;3.80;;
7487;SDS011;3785;52.260;4.728;2023-05-07T11:40:21;6.55;;;3.63;;
7487;SDS011;3785;52.260;4.728;2023-05-07T11:43:57;5.95;;;3.53;;
7487;SDS011;3785;52.260;4.728;2023-05-07T11:47:19;4.40;;;3.03;;
7487;SDS011;3785;52.260;4.728;2023-05-07T11:50:50;4.05;;;2.85;;
7487;SDS011;3785;52.260;4.728;2023-05-07T11:54:19;5.03;;;3.28;;
7487;SDS011;3785;52.260;4.728;2023-05-07T11:57:41;4.60;;;2.85;;
7487;SDS011;3785;52.260;4.728;2023-05-07T12:01:02;6.28;;;3.03;;
7487;SDS011;3785;52.260;4.728;2023-05-07T12:04:23;4.63;;;3.25;;
7487;SDS011;3785;52.260;4.728;2023-05-07T12:07:44;4.65;;;2.63;;
7487;SDS011;3785;52.260;4.728;2023-05-07T12:11:06;4.97;;;2.13;;
7487;SDS011;3785;52.260;4.728;2023-05-07T12:14:28;3.92;;;2.47;;
7487;SDS011;3785;52.260;4.728;2023-05-07T12:17:50;4.75;;;2.53;;
7487;SDS011;3785;52.260;4.728;2023-05-07T12:21:14;5.72;;;2.70;;
7487;SDS011;3785;52.260;4.728;2023-05-07T12:24:47;4.55;;;2.10;;
7487;SDS011;3785;52.260;4.728;2023-05-07T12:28:12;4.13;;;2.00;;
7487;SDS011;3785;52.260;4.728;2023-05-07T12:31:33;4.78;;;1.83;;
7487;SDS011;3785;52.260;4.728;2023-05-07T12:34:54;3.42;;;2.10;;
7487;SDS011;3785;52.260;4.728;2023-05-07T12:38:15;3.08;;;1.90;;
7487;SDS011;3785;52.260;4.728;2023-05-07T12:41:56;3.92;;;1.90;;
7487;SDS011;3785;52.260;4.728;2023-05-07T12:45:18;3.50;;;2.00;;
7487;SDS011;3785;52.260;4.728;2023-05-07T12:48:45;4.03;;;2.22;;
7487;SDS011;3785;52.260;4.728;2023-05-07T12:52:06;5.25;;;2.45;;
7487;SDS011;3785;52.260;4.728;2023-05-07T12:55:27;3.88;;;2.60;;
7487;SDS011;3785;52.260;4.728;2023-05-07T12:58:49;7.10;;;3.55;;
7487;SDS011;3785;52.260;4.728;2023-05-07T13:02:09;4.80;;;3.50;;
7487;SDS011;3785;52.260;4.728;2023-05-07T13:05:33;5.03;;;2.88;;
7487;SDS011;3785;52.260;4.728;2023-05-07T13:08:54;7.20;;;2.78;;
7487;SDS011;3785;52.260;4.728;2023-05-07T13:12:15;6.40;;;2.92;;
7487;SDS011;3785;52.260;4.728;2023-05-07T13:15:36;6.93;;;3.45;;
7487;SDS011;3785;52.260;4.728;2023-05-07T13:18:57;4.45;;;2.40;;
7487;SDS011;3785;52.260;4.728;2023-05-07T13:22:18;7.40;;;3.70;;
7487;SDS011;3785;52.260;4.728;2023-05-07T13:25:38;10.52;;;3.92;;
7487;SDS011;3785;52.260;4.728;2023-05-07T13:28:59;8.50;;;4.50;;
7487;SDS011;3785;52.260;4.728;2023-05-07T13:32:20;6.28;;;3.45;;
7487;SDS011;3785;52.260;4.728;2023-05-07T13:35:40;8.00;;;4.07;;
7487;SDS011;3785;52.260;4.728;2023-05-07T13:39:01;0.03;;;0.03;;
7487;SDS011;3785;52.260;4.728;2023-05-07T13:42:22;0.00;;;0.00;;
7487;SDS011;3785;52.260;4.728;2023-05-07T13:45:43;0.00;;;0.00;;
7487;SDS011;3785;52.260;4.728;2023-05-07T13:49:03;0.00;;;0.00;;
7487;SDS011;3785;52.260;4.728;2023-05-07T13:52:24;0.00;;;0.00;;
7487;SDS011;3785;52.260;4.728;2023-05-07T13:55:45;0.00;;;0.00;;
7487;SDS011;3785;52.260;4.728;2023-05-07T13:59:06;0.00;;;0.00;;
7487;SDS011;3785;52.260;4.728;2023-05-07T14:02:26;0.00;;;0.00;;
7487;SDS011;3785;52.260;4.728;2023-05-07T14:05:47;0.00;;;0.00;;
7487;SDS011;3785;52.260;4.728;2023-05-07T14:09:08;0.00;;;0.00;;
7487;SDS011;3785;52.260;4.728;2023-05-07T14:12:28;0.00;;;0.00;;
7487;SDS011;3785;52.260;4.728;2023-05-07T14:15:49;0.00;;;0.00;;
7487;SDS011;3785;52.260;4.728;2023-05-07T14:19:10;0.00;;;0.00;;
7487;SDS011;3785;52.260;4.728;2023-05-07T14:22:34;0.00;;;0.00;;
7487;SDS011;3785;52.260;4.728;2023-05-07T14:25:54;0.00;;;0.00;;
7487;SDS011;3785;52.260;4.728;2023-05-07T14:29:17;0.00;;;0.00;;
7487;SDS011;3785;52.260;4.728;2023-05-07T14:32:38;0.00;;;0.00;;
7487;SDS011;3785;52.260;4.728;2023-05-07T14:35:59;0.00;;;0.00;;
7487;SDS011;3785;52.260;4.728;2023-05-07T14:39:20;0.00;;;0.00;;
7487;SDS011;3785;52.260;4.728;2023-05-07T14:42:40;0.00;;;0.00;;
7487;SDS011;3785;52.260;4.728;2023-05-07T14:46:01;0.00;;;0.00;;
7487;SDS011;3785;52.260;4.728;2023-05-07T14:49:21;0.00;;;0.00;;
7487;SDS011;3785;52.260;4.728;2023-05-07T14:52:42;0.00;;;0.00;;
7487;SDS011;3785;52.260;4.728;2023-05-07T14:56:03;0.00;;;0.00;;
7487;SDS011;3785;52.260;4.728;2023-05-07T14:59:24;0.00;;;0.00;;
7487;SDS011;3785;52.260;4.728;2023-05-07T15:02:45;0.00;;;0.00;;
7487;SDS011;3785;52.260;4.728;2023-05-07T15:06:05;0.00;;;0.00;;
7487;SDS011;3785;52.260;4.728;2023-05-07T15:09:26;0.00;;;0.00;;
7487;SDS011;3785;52.260;4.728;2023-05-07T15:12:46;0.00;;;0.00;;
7487;SDS011;3785;52.260;4.728;2023-05-07T15:16:07;0.00;;;0.00;;
7487;SDS011;3785;52.260;4.728;2023-05-07T15:19:27;0.00;;;0.00;;
7487;SDS011;3785;52.260;4.728;2023-05-07T15:22:49;0.00;;;0.00;;
7487;SDS011;3785;52.260;4.728;2023-05-07T15:26:10;0.00;;;0.00;;
7487;SDS011;3785;52.260;4.728;2023-05-07T15:29:30;0.00;;;0.00;;
7487;SDS011;3785;52.260;4.728;2023-05-07T15:32:51;0.00;;;0.00;;
7487;SDS011;3785;52.260;4.728;2023-05-07T15:36:12;7.13;;;4.35;;
7487;SDS011;3785;52.260;4.728;2023-05-07T15:39:32;6.60;;;4.85;;
7487;SDS011;3785;52.260;4.728;2023-05-07T15:42:54;7.80;;;5.40;;
7487;SDS011;3785;52.260;4.728;2023-05-07T15:46:19;7.88;;;5.80;;
7487;SDS011;3785;52.260;4.728;2023-05-07T15:49:41;8.98;;;7.18;;
7487;SDS011;3785;52.260;4.728;2023-05-07T15:53:02;8.65;;;7.40;;
7487;SDS011;3785;52.260;4.728;2023-05-07T15:56:23;11.10;;;8.18;;
7487;SDS011;3785;52.260;4.728;2023-05-07T15:59:44;12.13;;;8.40;;
7487;SDS011;3785;52.260;4.728;2023-05-07T16:03:04;11.73;;;8.38;;
7487;SDS011;3785;52.260;4.728;2023-05-07T16:06:25;12.00;;;9.13;;
7487;SDS011;3785;52.260;4.728;2023-05-07T16:09:46;12.35;;;9.63;;
7487;SDS011;3785;52.260;4.728;2023-05-07T16:13:07;12.85;;;9.73;;
7487;SDS011;3785;52.260;4.728;2023-05-07T16:16:27;15.55;;;11.30;;
7487;SDS011;3785;52.260;4.728;2023-05-07T16:19:49;14.50;;;9.75;;
7487;SDS011;3785;52.260;4.728;2023-05-07T16:23:10;13.57;;;10.63;;
7487;SDS011;3785;52.260;4.728;2023-05-07T16:26:32;15.65;;;11.52;;
7487;SDS011;3785;52.260;4.728;2023-05-07T16:29:52;14.00;;;10.57;;
7487;SDS011;3785;52.260;4.728;2023-05-07T16:33:13;14.73;;;11.65;;
7487;SDS011;3785;52.260;4.728;2023-05-07T16:36:33;17.05;;;12.10;;
7487;SDS011;3785;52.260;4.728;2023-05-07T16:39:54;16.23;;;11.57;;
7487;SDS011;3785;52.260;4.728;2023-05-07T16:43:15;19.70;;;12.07;;
7487;SDS011;3785;52.260;4.728;2023-05-07T16:46:36;16.58;;;11.00;;
7487;SDS011;3785;52.260;4.728;2023-05-07T16:49:56;15.32;;;11.68;;
7487;SDS011;3785;52.260;4.728;2023-05-07T16:53:19;15.57;;;11.63;;
7487;SDS011;3785;52.260;4.728;2023-05-07T16:56:40;17.05;;;12.23;;
7487;SDS011;3785;52.260;4.728;2023-05-07T17:00:01;14.27;;;11.10;;
7487;SDS011;3785;52.260;4.728;2023-05-07T17:03:25;18.25;;;11.50;;
7487;SDS011;3785;52.260;4.728;2023-05-07T17:06:47;18.73;;;11.00;;
7487;SDS011;3785;52.260;4.728;2023-05-07T17:10:08;15.25;;;11.63;;
7487;SDS011;3785;52.260;4.728;2023-05-07T17:13:29;17.98;;;12.40;;
7487;SDS011;3785;52.260;4.728;2023-05-07T17:16:50;15.60;;;11.93;;
7487;SDS011;3785;52.260;4.728;2023-05-07T17:20:10;16.00;;;11.88;;
7487;SDS011;3785;52.260;4.728;2023-05-07T17:23:31;14.20;;;11.10;;
7487;SDS011;3785;52.260;4.728;2023-05-07T17:26:52;17.35;;;11.85;;
7487;SDS011;3785;52.260;4.728;2023-05-07T17:30:12;17.08;;;12.35;;
7487;SDS011;3785;52.260;4.728;2023-05-07T17:33:35;14.32;;;11.13;;
7487;SDS011;3785;52.260;4.728;2023-05-07T17:36:55;17.05;;;10.45;;
7487;SDS011;3785;52.260;4.728;2023-05-07T17:40:18;14.35;;;10.93;;
7487;SDS011;3785;52.260;4.728;2023-05-07T17:43:41;13.43;;;11.25;;
7487;SDS011;3785;52.260;4.728;2023-05-07T17:47:01;12.68;;;9.77;;
7487;SDS011;3785;52.260;4.728;2023-05-07T17:50:22;14.75;;;10.38;;
7487;SDS011;3785;52.260;4.728;2023-05-07T17:53:43;12.38;;;9.65;;
7487;SDS011;3785;52.260;4.728;2023-05-07T17:57:03;12.95;;;10.27;;
7487;SDS011;3785;52.260;4.728;2023-05-07T18:00:24;15.07;;;10.32;;
7487;SDS011;3785;52.260;4.728;2023-05-07T18:03:45;11.43;;;9.55;;
7487;SDS011;3785;52.260;4.728;2023-05-07T18:07:05;11.30;;;7.72;;
7487;SDS011;3785;52.260;4.728;2023-05-07T18:10:26;13.30;;;8.57;;
7487;SDS011;3785;52.260;4.728;2023-05-07T18:13:46;11.38;;;8.95;;
7487;SDS011;3785;52.260;4.728;2023-05-07T18:17:07;10.88;;;9.05;;
7487;SDS011;3785;52.260;4.728;2023-05-07T18:20:28;10.82;;;8.63;;
7487;SDS011;3785;52.260;4.728;2023-05-07T18:23:48;8.73;;;6.85;;
7487;SDS011;3785;52.260;4.728;2023-05-07T18:27:11;7.15;;;5.95;;
7487;SDS011;3785;52.260;4.728;2023-05-07T18:30:32;5.32;;;4.03;;
7487;SDS011;3785;52.260;4.728;2023-05-07T18:33:53;6.22;;;3.60;;
7487;SDS011;3785;52.260;4.728;2023-05-07T18:37:14;4.65;;;3.58;;
7487;SDS011;3785;52.260;4.728;2023-05-07T18:40:35;5.07;;;3.60;;
7487;SDS011;3785;52.260;4.728;2023-05-07T18:43:56;3.30;;;3.00;;
7487;SDS011;3785;52.260;4.728;2023-05-07T18:47:16;5.18;;;3.33;;
7487;SDS011;3785;52.260;4.728;2023-05-07T18:50:40;5.13;;;4.25;;
7487;SDS011;3785;52.260;4.728;2023-05-07T18:54:04;6.25;;;5.20;;
7487;SDS011;3785;52.260;4.728;2023-05-07T18:57:24;17.13;;;11.52;;
7487;SDS011;3785;52.260;4.728;2023-05-07T19:00:47;9.93;;;7.10;;
7487;SDS011;3785;52.260;4.728;2023-05-07T19:04:08;5.47;;;4.53;;
7487;SDS011;3785;52.260;4.728;2023-05-07T19:07:29;5.65;;;3.22;;
7487;SDS011;3785;52.260;4.728;2023-05-07T19:10:49;3.50;;;3.20;;
7487;SDS011;3785;52.260;4.728;2023-05-07T19:14:10;3.58;;;2.70;;
7487;SDS011;3785;52.260;4.728;2023-05-07T19:17:31;3.83;;;3.05;;
7487;SDS011;3785;52.260;4.728;2023-05-07T19:20:51;4.50;;;3.22;;
7487;SDS011;3785;52.260;4.728;2023-05-07T19:24:12;5.55;;;3.80;;
7487;SDS011;3785;52.260;4.728;2023-05-07T19:27:33;4.50;;;3.50;;
7487;SDS011;3785;52.260;4.728;2023-05-07T19:30:53;5.10;;;3.20;;
7487;SDS011;3785;52.260;4.728;2023-05-07T19:34:14;3.97;;;3.53;;
7487;SDS011;3785;52.260;4.728;2023-05-07T19:37:34;4.95;;;3.15;;
7487;SDS011;3785;52.260;4.728;2023-05-07T19:40:55;5.65;;;2.95;;
7487;SDS011;3785;52.260;4.728;2023-05-07T19:44:16;4.60;;;3.17;;
7487;SDS011;3785;52.260;4.728;2023-05-07T19:47:37;4.18;;;3.53;;
7487;SDS011;3785;52.260;4.728;2023-05-07T19:50:57;4.72;;;3.35;;
7487;SDS011;3785;52.260;4.728;2023-05-07T19:54:18;5.80;;;3.97;;
7487;SDS011;3785;52.260;4.728;2023-05-07T19:57:39;4.28;;;3.80;;
7487;SDS011;3785;52.260;4.728;2023-05-07T20:01:00;4.00;;;3.40;;
7487;SDS011;3785;52.260;4.728;2023-05-07T20:04:21;4.35;;;3.45;;
7487;SDS011;3785;52.260;4.728;2023-05-07T20:07:48;5.60;;;3.88;;
7487;SDS011;3785;52.260;4.728;2023-05-07T20:11:08;4.30;;;3.50;;
7487;SDS011;3785;52.260;4.728;2023-05-07T20:14:30;5.03;;;3.90;;
7487;SDS011;3785;52.260;4.728;2023-05-07T20:17:51;5.03;;;3.97;;
7487;SDS011;3785;52.260;4.728;2023-05-07T20:21:12;7.05;;;4.32;;
7487;SDS011;3785;52.260;4.728;2023-05-07T20:24:36;4.97;;;4.05;;
7487;SDS011;3785;52.260;4.728;2023-05-07T20:27:58;5.72;;;4.45;;
7487;SDS011;3785;52.260;4.728;2023-05-07T20:31:18;6.65;;;4.75;;
7487;SDS011;3785;52.260;4.728;2023-05-07T20:34:39;5.72;;;4.47;;
7487;SDS011;3785;52.260;4.728;2023-05-07T20:38:00;6.68;;;5.00;;
7487;SDS011;3785;52.260;4.728;2023-05-07T20:41:20;6.32;;;4.82;;
7487;SDS011;3785;52.260;4.728;2023-05-07T20:44:43;5.60;;;4.70;;
7487;SDS011;3785;52.260;4.728;2023-05-07T20:48:04;8.10;;;5.47;;
7487;SDS011;3785;52.260;4.728;2023-05-07T20:51:24;5.78;;;4.60;;
7487;SDS011;3785;52.260;4.728;2023-05-07T20:54:46;6.95;;;4.90;;